CST,Max TemperatureF,Mean TemperatureF,Min TemperatureF,Max Dew PointF,MeanDew PointF,Min DewpointF,Max Humidity, Mean Humidity, Min Humidity, Max Sea Level PressureIn, Mean Sea Level PressureIn, Min Sea Level PressureIn, Max VisibilityMiles, Mean VisibilityMiles, Min VisibilityMiles, Max Wind SpeedMPH, Mean Wind SpeedMPH, Max Gust SpeedMPH,PrecipitationIn, CloudCover, Events, WindDirDegrees
2013-11-1,,,,,,,,,,,,,,,,,,,,,,
2013-11-2,,,,,,,,,,,,,,,,,,,,,,
2013-11-3,,,,,,,,,,,,,,,,,,,,,,
2013-11-4,,,,,,,,,,,,,,,,,,,,,,
2013-11-5,,,,,,,,,,,,,,,,,,,,,,
2013-11-6,,,,,,,,,,,,,,,,,,,,,,
2013-11-7,,,,,,,,,,,,,,,,,,,,,,
2013-11-8,60,52,42,36,32,28,62,47,31,30.42,30.29,30.23,10,10,10,9,4,,0.00,0,,139
2013-11-9,62,50,39,39,34,28,71,55,39,30.29,30.25,30.19,10,10,10,12,4,20,0.00,3,,191
2013-11-10,62,52,42,39,34,27,71,53,32,30.40,30.34,30.27,10,10,2,16,4,22,0.00,1,,34
2013-11-11,64,50,35,36,29,25,70,55,32,30.33,30.31,30.23,10,10,10,9,2,,0.00,2,,103
2013-11-12,,,,,,,,,,,,,,,,,,,,,,
2013-11-13,46,37,28,18,17,16,64,49,31,30.56,30.51,30.46,10,10,10,4,1,,0.00,0,,152
2013-11-14,57,40,24,23,18,14,69,43,23,30.46,30.33,30.19,10,10,8,12,3,18,0.00,0,,168
2013-11-15,42,40,39,25,20,18,53,43,39,30.18,30.17,30.16,10,10,10,7,4,,0.00,1,,157
2013-11-16,,,,,,,,,,,,,,,,,,,,,,
2013-11-17,,,,,,,,,,,,,,,,,,,,,,
2013-11-18,60,51,42,36,28,21,46,38,31,30.30,30.24,30.19,10,10,10,16,10,26,0.00,0,,360
2013-11-19,48,42,37,25,23,21,56,46,37,30.35,30.27,30.20,10,10,0,12,6,,0.00,0,,45
2013-11-20,60,46,33,34,28,21,65,49,36,30.22,30.17,30.10,10,10,10,12,5,,0.00,0,,119
2013-11-21,62,55,48,52,43,32,77,63,50,30.23,30.19,30.15,10,10,5,13,7,18,0.00,4,,143
2013-11-22,59,50,42,52,42,30,82,71,61,30.44,30.32,30.19,10,8,2,20,9,25,0.00,8,,358
2013-11-23,42,34,26,30,21,10,70,53,34,30.64,30.52,30.41,10,10,10,22,13,31,0.00,4,,9
2013-11-24,32,26,21,12,9,5,54,47,40,30.71,30.61,30.45,10,10,10,17,13,24,0.00,0,,41
2013-11-25,35,32,30,25,18,12,70,57,41,30.46,30.33,30.19,10,10,6,8,4,,0.00,8,,85
2013-11-26,39,36,32,28,24,16,75,64,48,30.20,30.09,30.00,10,9,3,22,9,30,0.00,7,,8
2013-11-27,30,26,19,16,9,5,68,48,40,30.42,30.32,30.17,10,10,10,21,13,31,0.00,0,,344
2013-11-28,44,32,19,19,14,9,68,50,34,30.50,30.44,30.38,10,10,10,9,3,,0.00,0,,190
2013-11-29,51,38,24,28,21,14,69,55,38,30.59,30.52,30.45,10,10,6,9,2,,0.00,0,,114
2013-11-30,57,42,26,28,23,18,69,47,27,30.44,30.34,30.23,10,10,10,12,4,18,0.00,1,,176